Time;durP1;ratioP1;P1;durP2;ratioP2;P2;SDS_P1;SDS_P2;PMS_P1;PMS_P2;Temp;Humidity;BMP_temperature;BMP_pressure;BME280_temperature;BME280_humidity;BME280_pressure;Samples;Min_cycle;Max_cycle;Signal;HPM_P1;HPM_P2
2023/11/15 00:02:02;;;;;;;9.20;6.35;;;;;;;4.77;68.75;98327.53;5052045;28;20352;-67
2023/11/15 00:04:28;;;;;;;7.28;5.78;;;;;;;4.87;68.32;98335.59;5051062;28;20039;-69
2023/11/15 00:06:53;;;;;;;8.38;6.18;;;;;;;4.88;68.25;98350.53;5049425;28;20037;-67
2023/11/15 00:09:19;;;;;;;7.85;5.80;;;;;;;4.89;68.27;98334.50;5052249;28;20043;-67
2023/11/15 00:11:45;;;;;;;9.07;6.32;;;;;;;4.86;68.11;98324.13;5052462;28;20344;-68
2023/11/15 00:14:10;;;;;;;7.93;5.80;;;;;;;4.92;68.44;98330.75;5048315;28;20083;-68
2023/11/15 00:16:37;;;;;;;9.35;6.63;;;;;;;4.99;68.48;98344.38;5051750;28;20037;-68
2023/11/15 00:19:07;;;;;;;8.18;6.05;;;;;;;4.98;67.85;98330.25;5037586;28;20107;-67
2023/11/15 00:21:34;;;;;;;8.60;5.68;;;;;;;4.98;68.04;98330.25;5032163;28;20044;-68
2023/11/15 00:24:00;;;;;;;8.05;6.28;;;;;;;5.00;68.45;98328.31;5032195;28;20120;-69
2023/11/15 00:26:26;;;;;;;9.57;6.45;;;;;;;4.92;67.75;98312.19;5032525;28;20041;-67
2023/11/15 00:28:52;;;;;;;10.60;6.50;;;;;;;5.02;67.92;98323.72;5038624;28;20082;-68
2023/11/15 00:31:19;;;;;;;8.90;6.28;;;;;;;5.02;67.83;98321.06;5050452;28;20064;-66
2023/11/15 00:33:45;;;;;;;10.50;6.32;;;;;;;5.02;67.73;98326.38;5051767;28;20094;-68
2023/11/15 00:36:11;;;;;;;11.02;6.00;;;;;;;5.02;67.71;98329.03;5048514;28;20025;-67
2023/11/15 00:38:38;;;;;;;8.30;6.40;;;;;;;5.02;68.06;98329.03;5051067;28;20044;-68
2023/11/15 00:41:04;;;;;;;9.35;6.47;;;;;;;4.98;67.28;98327.59;5051104;28;20072;-67
2023/11/15 00:43:30;;;;;;;7.47;6.10;;;;;;;4.93;67.74;98313.88;5049325;28;20453;-68
2023/11/15 00:45:55;;;;;;;9.38;6.43;;;;;;;4.89;68.19;98320.41;5052116;28;20021;-63
2023/11/15 00:48:21;;;;;;;8.57;6.55;;;;;;;4.87;68.35;98323.16;5050839;28;20036;-68
2023/11/15 00:50:47;;;;;;;11.15;6.63;;;;;;;4.87;67.88;98319.69;5052066;28;20037;-67
2023/11/15 00:53:13;;;;;;;8.23;6.22;;;;;;;4.84;67.56;98312.00;5050374;28;20072;-67
2023/11/15 00:55:39;;;;;;;11.82;7.38;;;;;;;4.80;68.37;98318.47;5050071;28;20098;-68
2023/11/15 00:58:08;;;;;;;10.10;6.93;;;;;;;4.73;68.13;98318.16;5051777;28;20036;-67
2023/11/15 01:00:44;;;;;;;12.48;6.65;;;;;;;4.72;68.37;98317.31;5052250;28;20033;-68
2023/11/15 01:03:10;;;;;;;;;;;;;;;5.04;68.24;98315.66;5056100;28;20040;-65
2023/11/15 01:05:36;;;;;;;11.18;6.60;;;;;;;4.86;67.60;98318.84;5055028;28;20263;-68
2023/11/15 01:08:04;;;;;;;8.77;6.25;;;;;;;4.77;67.74;98314.28;5054104;28;20040;-67
2023/11/15 01:10:31;;;;;;;8.65;6.57;;;;;;;4.72;68.43;98312.00;5055934;28;20047;-66
2023/11/15 01:12:58;;;;;;;8.82;7.10;;;;;;;4.70;67.94;98313.06;5055663;28;20033;-64
2023/11/15 01:15:24;;;;;;;11.45;6.82;;;;;;;4.58;68.42;98304.31;5053602;28;20044;-67
2023/11/15 01:17:50;;;;;;;9.00;6.57;;;;;;;4.68;68.10;98321.16;5054630;28;20037;-69
2023/11/15 01:20:16;;;;;;;9.02;6.53;;;;;;;4.66;68.22;98309.84;5055470;28;20050;-67
2023/11/15 01:22:42;;;;;;;9.48;7.30;;;;;;;4.70;68.47;98323.69;5055020;28;20024;-68
2023/11/15 01:25:08;;;;;;;8.65;6.50;;;;;;;4.67;67.93;98318.63;5055234;28;20056;-67
2023/11/15 01:27:36;;;;;;;9.63;7.15;;;;;;;4.64;68.84;98311.78;5055286;28;20035;-67
2023/11/15 01:30:03;;;;;;;12.65;7.18;;;;;;;4.62;68.30;98319.03;5040477;28;20041;-65
2023/11/15 01:32:30;;;;;;;9.40;6.40;;;;;;;4.57;68.21;98307.91;5036324;28;20076;-67
2023/11/15 01:34:56;;;;;;;9.30;7.15;;;;;;;4.51;68.43;98297.81;5043510;28;20047;-68
2023/11/15 01:37:21;;;;;;;9.68;7.28;;;;;;;4.42;68.34;98283.50;5055008;28;20048;-67
2023/11/15 01:39:48;;;;;;;9.27;6.93;;;;;;;4.64;68.73;98322.38;5055450;28;20116;-68
2023/11/15 01:42:13;;;;;;;9.98;7.00;;;;;;;4.67;68.79;98318.63;5054875;28;20021;-66
2023/11/15 01:44:39;;;;;;;8.77;6.82;;;;;;;4.67;68.27;98306.22;5055049;28;20074;-67
2023/11/15 01:47:05;;;;;;;10.30;7.03;;;;;;;4.62;68.30;98303.13;5054830;28;20025;-67
2023/11/15 01:49:31;;;;;;;9.43;7.35;;;;;;;4.72;67.90;98327.91;5052933;28;20029;-68
2023/11/15 01:51:57;;;;;;;9.93;7.05;;;;;;;4.64;68.33;98308.28;5038236;28;20028;-67
2023/11/15 01:54:23;;;;;;;10.65;8.00;;;;;;;4.67;68.67;98315.97;5053810;28;20036;-67
2023/11/15 01:56:49;;;;;;;11.35;7.35;;;;;;;4.57;68.46;98307.91;5051452;28;20029;-66
2023/11/15 01:59:15;;;;;;;10.55;6.88;;;;;;;4.60;68.62;98318.31;5035292;28;20094;-67
2023/11/15 02:01:41;;;;;;;9.85;7.53;;;;;;;4.55;68.53;98320.47;5053010;28;20025;-68
2023/11/15 02:04:08;;;;;;;9.77;7.18;;;;;;;4.53;68.66;98317.09;5050963;28;20455;-68
2023/11/15 02:06:35;;;;;;;10.90;7.90;;;;;;;4.48;68.62;98311.31;5034796;28;20033;-68
2023/11/15 02:09:02;;;;;;;13.73;8.27;;;;;;;4.50;68.81;98317.34;5034769;28;20033;-66
2023/11/15 02:11:28;;;;;;;10.95;7.65;;;;;;;4.53;69.05;98325.91;5034744;28;20395;-67
2023/11/15 02:13:55;;;;;;;9.75;7.30;;;;;;;4.52;68.81;98324.22;5034309;28;20416;-68
2023/11/15 02:16:22;;;;;;;10.23;7.15;;;;;;;4.56;68.57;98332.75;5034466;28;20116;-68
2023/11/15 02:18:48;;;;;;;10.88;7.43;;;;;;;4.44;68.42;98314.22;5036661;28;20033;-67
2023/11/15 02:21:34;;;;;;;12.88;7.47;;;;;;;4.55;68.49;98326.63;5053704;28;20379;-67
2023/11/15 02:24:00;;;;;;;11.38;7.68;;;;;;;4.61;68.76;98343.84;5053470;28;20041;-67
2023/11/15 02:26:26;;;;;;;10.75;7.53;;;;;;;4.63;68.67;98349.00;5054292;28;20041;-67
2023/11/15 02:28:51;;;;;;;9.77;7.40;;;;;;;4.62;68.75;98336.72;5054123;28;20037;-67
2023/11/15 02:31:17;;;;;;;9.43;7.40;;;;;;;4.63;68.65;98343.72;5054018;28;20052;-66
2023/11/15 02:33:44;;;;;;;9.70;7.20;;;;;;;4.58;68.30;98333.47;5051814;28;20505;-67
2023/11/15 02:36:10;;;;;;;8.77;7.25;;;;;;;4.55;68.69;98341.66;5054131;28;20123;-67
2023/11/15 02:38:36;;;;;;;12.23;7.85;;;;;;;4.53;68.59;98348.91;5051513;28;20116;-67
2023/11/15 02:41:02;;;;;;;11.93;7.25;;;;;;;4.51;68.81;98345.53;5053500;28;20040;-65
2023/11/15 02:43:27;;;;;;;10.55;7.60;;;;;;;4.55;68.64;98344.31;5054048;28;20117;-67
2023/11/15 02:45:53;;;;;;;11.20;7.97;;;;;;;4.61;68.79;98346.50;5052071;28;20379;-68
2023/11/15 02:48:19;;;;;;;11.68;8.20;;;;;;;4.57;68.18;98339.72;5053703;28;20075;-67
2023/11/15 02:50:44;;;;;;;8.77;7.00;;;;;;;4.55;68.46;98336.34;5053570;28;20123;-67
2023/11/15 02:53:10;;;;;;;10.73;7.90;;;;;;;4.62;68.35;98342.88;5053660;28;20478;-68
2023/11/15 02:55:36;;;;;;;11.45;7.80;;;;;;;4.65;68.85;98347.06;5053838;28;20043;-67
2023/11/15 02:58:03;;;;;;;13.77;8.80;;;;;;;4.64;68.34;98351.56;5051334;28;20482;-67
2023/11/15 03:00:30;;;;;;;12.18;8.38;;;;;;;4.62;68.43;98353.47;5053633;28;20040;-68
2023/11/15 03:02:56;;;;;;;12.38;8.00;;;;;;;4.64;68.46;98351.56;5052496;28;20333;-67
2023/11/15 03:05:22;;;;;;;13.35;8.48;;;;;;;4.40;68.74;98314.56;5053644;28;20036;-67
2023/11/15 03:07:47;;;;;;;11.50;9.02;;;;;;;4.66;68.46;98354.06;5053549;28;20032;-68
2023/11/15 03:10:13;;;;;;;13.13;8.05;;;;;;;4.67;68.96;98355.75;5040648;28;20452;-67
2023/11/15 03:12:39;;;;;;;14.43;8.82;;;;;;;4.67;68.62;98361.91;5033435;28;20126;-68
2023/11/15 03:15:05;;;;;;;11.15;7.78;;;;;;;4.66;68.33;98359.38;5034617;28;20032;-66
2023/11/15 03:17:32;;;;;;;12.32;8.93;;;;;;;4.65;68.29;98358.53;5041525;28;20478;-68
2023/11/15 03:19:58;;;;;;;10.50;7.90;;;;;;;4.63;68.34;98360.47;5053184;28;20118;-65
2023/11/15 03:22:24;;;;;;;12.85;8.48;;;;;;;4.66;68.28;98360.22;5053029;28;20741;-68
2023/11/15 03:24:50;;;;;;;12.85;8.07;;;;;;;4.69;68.07;98361.75;5051705;28;20056;-67
2023/11/15 03:27:17;;;;;;;11.27;8.15;;;;;;;4.71;67.81;98368.66;5053347;28;20456;-68
2023/11/15 03:29:43;;;;;;;13.02;9.15;;;;;;;4.71;68.48;98359.88;5052609;28;20087;-67
2023/11/15 03:32:10;;;;;;;10.85;8.43;;;;;;;4.71;68.12;98352.75;5052668;28;20032;-67
2023/11/15 03:34:40;;;;;;;10.13;7.82;;;;;;;4.55;67.97;98323.09;5051469;28;20095;-66
2023/11/15 03:37:06;;;;;;;12.02;8.77;;;;;;;4.75;67.86;98358.66;5049436;28;20043;-63
2023/11/15 03:39:32;;;;;;;10.77;7.80;;;;;;;4.74;67.78;98349.00;5052865;28;20063;-66
2023/11/15 03:41:58;;;;;;;10.90;7.95;;;;;;;4.76;67.53;98348.88;5052686;28;20040;-68
2023/11/15 03:44:23;;;;;;;9.57;7.28;;;;;;;4.75;67.28;98350.69;5051225;28;20033;-68
2023/11/15 03:46:49;;;;;;;11.02;8.55;;;;;;;4.70;67.67;98340.44;5050869;28;20469;-69
2023/11/15 03:49:15;;;;;;;9.98;7.30;;;;;;;4.71;67.28;98360.69;5052134;28;20037;-68
2023/11/15 03:51:41;;;;;;;10.80;8.07;;;;;;;4.69;67.27;98354.66;5052525;28;20029;-69
2023/11/15 03:54:07;;;;;;;11.05;7.57;;;;;;;4.65;67.44;98353.25;5052320;28;20119;-65
2023/11/15 03:56:33;;;;;;;11.45;7.63;;;;;;;4.61;66.96;98354.44;5051000;28;20368;-69
2023/11/15 03:58:59;;;;;;;9.50;7.13;;;;;;;4.59;67.12;98353.72;5050666;28;20072;-67
2023/11/15 04:01:25;;;;;;;12.27;7.38;;;;;;;4.36;66.80;98319.28;5052407;28;20049;-67
2023/11/15 04:03:52;;;;;;;11.00;7.25;;;;;;;4.59;66.91;98353.72;5052647;28;20028;-67
2023/11/15 04:06:19;;;;;;;9.95;7.40;;;;;;;4.59;67.61;98353.72;5046339;28;20052;-67
2023/11/15 04:08:45;;;;;;;11.55;8.07;;;;;;;4.59;66.86;98354.56;5031381;28;20025;-67
2023/11/15 04:11:10;;;;;;;9.65;7.45;;;;;;;4.58;67.31;98358.19;5032537;28;20037;-67
2023/11/15 04:13:36;;;;;;;10.15;7.88;;;;;;;4.59;67.40;98353.72;5033725;28;20083;-68
2023/11/15 04:16:03;;;;;;;11.32;8.10;;;;;;;4.59;67.51;98351.91;5033477;28;20112;-67
2023/11/15 04:18:30;;;;;;;11.25;8.00;;;;;;;4.61;67.47;98351.81;5032968;28;20041;-68
2023/11/15 04:20:56;;;;;;;11.65;8.25;;;;;;;4.66;67.29;98352.28;5032783;28;20060;-67
2023/11/15 04:23:23;;;;;;;12.05;8.52;;;;;;;4.71;67.10;98358.03;5033340;28;20053;-67
2023/11/15 04:25:50;;;;;;;13.02;8.13;;;;;;;4.73;67.56;98366.72;5033640;28;20045;-68
2023/11/15 04:28:15;;;;;;;9.85;7.78;;;;;;;4.51;66.99;98321.66;5033139;28;20108;-68
2023/11/15 04:30:41;;;;;;;11.60;7.53;;;;;;;4.68;67.07;98357.44;5032017;28;20090;-67
2023/11/15 04:33:07;;;;;;;10.23;7.80;;;;;;;4.55;67.14;98349.63;5032996;28;20037;-68
2023/11/15 04:35:33;;;;;;;9.80;7.55;;;;;;;4.72;67.05;98365.03;5034902;28;20367;-68
2023/11/15 04:37:58;;;;;;;12.40;7.97;;;;;;;4.66;66.48;98349.63;5055240;28;20036;-68
2023/11/15 04:40:25;;;;;;;13.85;7.80;;;;;;;4.71;66.69;98363.34;5055955;28;20025;-68
2023/11/15 04:42:51;;;;;;;10.52;7.57;;;;;;;4.68;66.52;98374.19;5054382;28;20104;-67
2023/11/15 04:45:17;;;;;;;9.65;7.05;;;;;;;4.65;66.51;98369.13;5053218;28;20105;-68
2023/11/15 04:47:43;;;;;;;11.00;7.28;;;;;;;4.57;66.57;98355.63;5054302;28;20033;-68
2023/11/15 04:50:09;;;;;;;9.73;7.47;;;;;;;4.64;66.31;98372.75;5056255;28;20033;-67
2023/11/15 04:52:35;;;;;;;9.15;7.05;;;;;;;4.66;66.14;98376.13;5056182;28;20032;-68
2023/11/15 04:55:00;;;;;;;9.93;7.38;;;;;;;4.65;66.16;98377.09;5054296;28;20459;-69
2023/11/15 04:57:26;;;;;;;10.00;6.90;;;;;;;4.66;66.51;98380.56;5056008;28;20355;-67
2023/11/15 04:59:55;;;;;;;9.90;7.10;;;;;;;4.67;66.41;98383.13;5055982;28;20647;-69
2023/11/15 05:02:22;;;;;;;11.45;7.38;;;;;;;4.72;65.92;98390.72;5055973;28;20136;-67
2023/11/15 05:04:48;;;;;;;8.82;6.82;;;;;;;4.68;65.65;98392.75;5053960;28;20030;-68
2023/11/15 05:07:15;;;;;;;8.82;6.85;;;;;;;4.70;65.46;98388.16;5055504;28;20078;-68
2023/11/15 05:09:40;;;;;;;12.57;7.90;;;;;;;4.70;65.39;98388.16;5055975;28;20036;-63
2023/11/15 05:12:06;;;;;;;9.23;6.85;;;;;;;4.69;65.77;98385.63;5054298;28;20036;-68
2023/11/15 05:14:32;;;;;;;9.93;7.15;;;;;;;4.76;65.49;98391.28;5054118;28;20098;-68
2023/11/15 05:16:57;;;;;;;10.52;7.30;;;;;;;4.81;65.68;98394.41;5054305;28;20049;-67
2023/11/15 05:19:23;;;;;;;10.32;6.68;;;;;;;4.83;65.29;98389.84;5055564;28;20337;-69
2023/11/15 05:21:49;;;;;;;11.48;7.45;;;;;;;4.85;65.30;98403.84;5055357;28;20025;-68
2023/11/15 05:24:15;;;;;;;10.27;7.32;;;;;;;4.85;64.92;98393.22;5053462;28;20045;-68
2023/11/15 05:26:40;;;;;;;9.63;7.22;;;;;;;4.90;65.37;98388.38;5053753;28;20106;-68
2023/11/15 05:29:06;;;;;;;9.15;6.88;;;;;;;4.92;65.31;98391.75;5055429;28;20032;-67
2023/11/15 05:31:31;;;;;;;9.63;7.28;;;;;;;5.07;64.79;98394.16;5055328;28;20068;-68
2023/11/15 05:33:57;;;;;;;13.77;7.55;;;;;;;5.12;64.59;98376.88;5055161;28;20043;-68
2023/11/15 05:36:23;;;;;;;10.00;7.72;;;;;;;5.31;63.81;98389.50;5042515;28;20029;-67
2023/11/15 05:38:49;;;;;;;13.18;7.45;;;;;;;5.40;63.90;98390.53;5038270;28;20368;-68
2023/11/15 05:41:14;;;;;;;13.65;8.07;;;;;;;5.52;63.59;98390.50;5043238;28;20474;-67
2023/11/15 05:43:41;;;;;;;9.52;7.43;;;;;;;5.57;63.72;98391.81;5035311;28;20112;-67
2023/11/15 05:46:07;;;;;;;8.98;7.25;;;;;;;5.54;62.90;98394.69;5043153;28;20028;-68
2023/11/15 05:48:33;;;;;;;10.68;7.85;;;;;;;5.58;63.38;98387.31;5053997;28;20037;-69
2023/11/15 05:51:00;;;;;;;12.27;8.45;;;;;;;5.56;62.99;98389.28;5054811;28;20029;-69
2023/11/15 05:53:26;;;;;;;9.88;7.70;;;;;;;5.48;63.62;98397.88;5054897;28;20040;-68
2023/11/15 05:55:51;;;;;;;10.00;7.68;;;;;;;5.44;63.77;98385.81;5053021;28;20040;-68
2023/11/15 05:58:17;;;;;;;12.57;7.78;;;;;;;5.56;63.55;98410.50;5054650;28;20043;-67
2023/11/15 06:00:43;;;;;;;12.20;8.48;;;;;;;5.61;63.28;98413.63;5049507;28;20451;-66
2023/11/15 06:03:09;;;;;;;13.30;8.77;;;;;;;5.66;63.34;98405.28;5037487;28;20034;-73
2023/11/15 06:05:34;;;;;;;10.52;8.15;;;;;;;5.67;63.46;98402.50;5053820;28;20351;-73
2023/11/15 06:08:00;;;;;;;15.32;8.45;;;;;;;5.46;63.03;98367.94;5054729;28;20094;-73
2023/11/15 06:10:26;;;;;;;13.27;8.63;;;;;;;5.74;62.89;98413.44;5053788;28;20036;-73
2023/11/15 06:12:55;;;;;;;10.30;8.07;;;;;;;5.48;63.08;98363.34;5042685;28;20467;-72
2023/11/15 06:15:21;;;;;;;12.73;8.88;;;;;;;5.74;63.05;98402.81;5034534;28;20140;-73
2023/11/15 06:17:47;;;;;;;12.48;9.23;;;;;;;5.77;62.85;98407.03;5034617;28;20029;-72
2023/11/15 06:20:13;;;;;;;15.40;9.10;;;;;;;5.76;63.14;98406.19;5036114;28;20028;-72
2023/11/15 06:22:39;;;;;;;13.98;8.50;;;;;;;5.82;62.77;98411.00;5035895;28;20075;-73
2023/11/15 06:25:06;;;;;;;11.68;9.18;;;;;;;5.87;62.75;98411.47;5034905;28;20073;-73
2023/11/15 06:27:34;;;;;;;13.35;9.02;;;;;;;5.83;62.19;98402.06;5034457;28;20029;-72
2023/11/15 06:30:01;;;;;;;12.00;8.40;;;;;;;5.97;62.12;98415.97;5034730;28;20065;-73
2023/11/15 06:32:34;;;;;;;15.23;8.93;;;;;;;6.03;61.53;98419.00;5035772;28;20432;-73
2023/11/15 06:35:00;;;;;;;13.13;9.48;;;;;;;6.12;61.71;98424.50;5033388;28;20060;-73
2023/11/15 06:37:26;;;;;;;14.63;10.00;;;;;;;6.22;61.46;98427.22;5033919;28;20368;-72
2023/11/15 06:39:52;;;;;;;13.23;9.35;;;;;;;6.32;60.88;98423.66;5034933;28;20363;-72
2023/11/15 06:42:21;;;;;;;12.38;9.07;;;;;;;6.44;60.96;98419.09;5035052;28;20454;-71
2023/11/15 06:44:47;;;;;;;14.07;8.98;;;;;;;6.39;60.64;98397.38;5034440;28;20479;-72
2023/11/15 06:47:14;;;;;;;13.10;8.77;;;;;;;6.69;59.94;98424.94;5035511;28;20057;-75
2023/11/15 06:49:41;;;;;;;13.25;8.68;;;;;;;6.83;58.82;98426.41;5034278;28;20461;-73
2023/11/15 06:52:07;;;;;;;10.90;8.43;;;;;;;6.98;58.26;98418.06;5043263;28;20021;-74
2023/11/15 06:54:33;;;;;;;11.77;8.35;;;;;;;7.11;57.95;98417.81;5059144;28;20041;-73
2023/11/15 06:56:58;;;;;;;11.13;8.35;;;;;;;7.21;57.88;98417.81;5055523;28;20028;-74
2023/11/15 06:59:25;;;;;;;11.65;8.68;;;;;;;7.30;57.46;98422.31;5053344;28;20079;-73
2023/11/15 07:01:53;;;;;;;13.70;9.05;;;;;;;7.42;57.57;98421.22;5051205;28;20320;-73
2023/11/15 07:04:19;;;;;;;13.60;8.50;;;;;;;7.58;56.69;98431.31;5052990;28;20490;-73
2023/11/15 07:06:49;;;;;;;13.13;9.35;;;;;;;7.82;56.20;98427.41;5054368;28;20116;-73
2023/11/15 07:09:15;;;;;;;11.63;8.68;;;;;;;8.06;55.26;98434.13;5054183;28;20467;-73
2023/11/15 07:11:49;;;;;;;12.63;8.63;;;;;;;8.16;55.00;98402.94;5051809;28;20100;-72
2023/11/15 07:14:16;;;;;;;14.57;8.40;;;;;;;8.44;54.07;98432.38;5034015;28;20040;-74
2023/11/15 07:16:52;;;;;;;10.15;7.72;;;;;;;8.57;53.62;98413.41;5034937;28;20033;-75
2023/11/15 07:19:18;;;;;;;11.70;7.55;;;;;;;9.02;52.40;98419.81;5049987;28;20060;-67
2023/11/15 07:21:44;;;;;;;12.00;8.25;;;;;;;9.38;51.25;98419.03;5045364;28;20060;-73
2023/11/15 07:24:10;;;;;;;11.57;8.50;;;;;;;9.71;50.50;98430.03;5033193;28;20057;-73
2023/11/15 07:26:36;;;;;;;11.05;8.45;;;;;;;9.76;49.81;98417.03;5032577;28;20079;-73
2023/11/15 07:29:06;;;;;;;13.52;8.35;;;;;;;9.75;50.63;98425.22;5032641;28;20414;-71
2023/11/15 07:31:32;;;;;;;14.40;9.20;;;;;;;9.64;50.70;98428.97;5034599;28;20037;-71
2023/11/15 07:34:00;;;;;;;17.13;10.70;;;;;;;9.44;51.21;98428.28;5033137;28;20551;-71
2023/11/15 07:36:29;;;;;;;15.27;8.95;;;;;;;9.23;52.31;98441.88;5034856;28;20121;-72
2023/11/15 07:38:56;;;;;;;11.25;9.00;;;;;;;8.99;52.49;98437.94;5033167;28;20033;-72
2023/11/15 07:41:25;;;;;;;12.07;8.18;;;;;;;8.83;52.80;98439.44;5033105;28;20033;-72
2023/11/15 07:43:54;;;;;;;15.82;9.20;;;;;;;8.71;53.27;98432.59;5033468;28;20479;-73
2023/11/15 07:46:23;;;;;;;11.60;8.50;;;;;;;8.74;53.37;98442.97;5033403;28;20116;-66
2023/11/15 07:48:50;;;;;;;15.80;8.68;;;;;;;8.81;52.71;98432.53;5033878;28;20030;-73
2023/11/15 07:51:18;;;;;;;15.23;8.77;;;;;;;8.76;52.58;98432.97;5044671;28;20452;-74
2023/11/15 07:53:45;;;;;;;14.77;8.57;;;;;;;8.70;52.82;98441.56;5052187;28;20032;-73
2023/11/15 07:56:10;;;;;;;11.75;8.88;;;;;;;8.65;53.27;98443.84;5046393;28;20089;-73
2023/11/15 07:58:37;;;;;;;12.93;8.75;;;;;;;8.61;53.26;98448.63;5035112;28;20108;-72
2023/11/15 08:01:04;;;;;;;13.50;9.07;;;;;;;8.65;52.67;98446.50;5047000;28;20033;-73
2023/11/15 08:03:30;;;;;;;13.43;8.35;;;;;;;8.67;52.49;98449.88;5037461;28;20033;-66
2023/11/15 08:05:55;;;;;;;11.60;8.30;;;;;;;8.61;52.65;98443.28;5047113;28;20051;-67
2023/11/15 08:08:22;;;;;;;15.20;8.98;;;;;;;8.45;52.94;98415.38;5050706;28;20025;-64
2023/11/15 08:10:50;;;;;;;13.60;8.27;;;;;;;8.63;51.98;98453.81;5053296;28;20037;-70
2023/11/15 08:13:19;;;;;;;15.38;8.77;;;;;;;8.55;52.42;98454.53;5040109;28;20052;-69
2023/11/15 08:15:47;;;;;;;15.80;9.50;;;;;;;8.43;53.06;98453.84;5041041;28;20028;-69
2023/11/15 08:18:14;;;;;;;15.40;8.63;;;;;;;8.34;52.98;98450.22;5047468;28;20047;-69
2023/11/15 08:20:43;;;;;;;14.52;8.80;;;;;;;8.36;52.79;98461.56;5048920;28;20047;-71
2023/11/15 08:23:12;;;;;;;12.63;8.40;;;;;;;8.25;52.79;98449.25;5033865;28;20036;-68
2023/11/15 08:25:41;;;;;;;12.45;9.13;;;;;;;8.29;53.31;98465.81;5037946;28;20103;-68
2023/11/15 08:28:07;;;;;;;20.30;9.32;;;;;;;8.15;53.57;98457.25;5039405;28;20034;-69
2023/11/15 08:30:33;;;;;;;18.23;9.70;;;;;;;8.07;53.80;98467.78;5031399;28;20428;-70
2023/11/15 08:33:00;;;;;;;12.40;8.82;;;;;;;8.04;53.26;98470.75;5044795;28;20749;-72
2023/11/15 08:35:26;;;;;;;17.50;8.85;;;;;;;7.96;53.97;98466.09;5051424;28;20021;-70
2023/11/15 08:37:52;;;;;;;14.63;9.20;;;;;;;7.98;54.04;98465.97;5047671;28;20411;-71
2023/11/15 08:40:22;;;;;;;13.68;9.55;;;;;;;7.96;53.95;98471.44;5039795;28;20103;-70
2023/11/15 08:42:49;;;;;;;17.98;9.60;;;;;;;7.94;53.97;98477.88;5047821;28;20036;-69
2023/11/15 08:45:15;;;;;;;11.77;8.68;;;;;;;7.69;54.17;98450.81;5038663;28;20029;-72
2023/11/15 08:47:41;;;;;;;19.55;9.77;;;;;;;7.80;54.27;98477.34;5041544;28;20105;-67
2023/11/15 08:50:09;;;;;;;15.13;9.32;;;;;;;7.80;54.45;98488.00;5031803;28;20108;-69
2023/11/15 08:52:40;;;;;;;20.02;9.90;;;;;;;7.81;54.17;98478.16;5044291;28;20036;-69
2023/11/15 08:55:08;;;;;;;13.13;9.82;;;;;;;7.72;54.24;98482.53;5046951;28;20037;-70
2023/11/15 08:57:35;;;;;;;15.57;9.45;;;;;;;7.61;54.25;98472.84;5040366;28;20025;-71
2023/11/15 09:00:03;;;;;;;14.20;8.73;;;;;;;7.62;54.16;98474.53;5048584;28;20075;-74
2023/11/15 09:02:31;;;;;;;13.23;8.65;;;;;;;7.67;53.90;98471.41;5031960;28;20034;-70
2023/11/15 09:04:57;;;;;;;15.40;9.32;;;;;;;7.51;53.58;98448.84;5038251;28;20030;-70
2023/11/15 09:07:23;;;;;;;15.35;8.95;;;;;;;7.64;54.07;98477.03;5046311;28;20090;-69
2023/11/15 09:09:48;;;;;;;20.13;9.93;;;;;;;7.58;54.37;98471.28;5037400;28;20029;-67
2023/11/15 09:12:17;;;;;;;13.70;8.80;;;;;;;7.54;54.50;98480.53;5041941;28;20033;-70
2023/11/15 09:14:43;;;;;;;17.35;9.95;;;;;;;7.33;54.52;98452.19;5040323;28;20033;-69
2023/11/15 09:17:16;;;;;;;11.65;8.95;;;;;;;7.38;54.89;98462.44;5046693;28;20119;-71
2023/11/15 09:19:48;;;;;;;18.75;9.40;;;;;;;7.38;54.22;98483.72;5021932;28;20087;-71
2023/11/15 09:22:19;;;;;;;14.55;9.20;;;;;;;7.29;54.69;98485.38;5044523;28;20122;-67
2023/11/15 09:24:46;;;;;;;14.23;9.02;;;;;;;7.24;54.88;98481.44;5055013;28;20544;-72
2023/11/15 09:27:12;;;;;;;14.95;8.85;;;;;;;7.24;54.87;98492.94;5047481;28;20052;-71
2023/11/15 09:29:38;;;;;;;13.90;8.23;;;;;;;7.20;55.01;98480.03;5044658;28;20037;-68
2023/11/15 09:32:04;;;;;;;14.45;9.02;;;;;;;6.96;54.96;98451.94;5048357;28;20095;-69
2023/11/15 09:34:30;;;;;;;20.88;8.90;;;;;;;6.98;54.77;98453.47;5040489;28;20037;-69
2023/11/15 09:36:56;;;;;;;12.43;8.80;;;;;;;6.86;54.79;98446.59;5039106;28;20032;-68
2023/11/15 09:39:23;;;;;;;16.73;9.35;;;;;;;7.10;54.65;98488.81;5050831;28;20037;-70
2023/11/15 09:41:53;;;;;;;16.98;8.88;;;;;;;7.22;54.89;98502.84;5035653;28;20030;-72
2023/11/15 09:44:23;;;;;;;13.00;8.57;;;;;;;7.23;54.74;98496.56;5034531;28;20068;-63
2023/11/15 09:46:57;;;;;;;14.55;8.55;;;;;;;7.39;54.76;98511.19;5048666;28;20060;-66
2023/11/15 09:49:25;;;;;;;15.93;8.18;;;;;;;7.45;54.62;98497.31;5054293;28;20044;-70
2023/11/15 09:51:52;;;;;;;12.75;8.00;;;;;;;7.38;53.95;98493.53;5048755;28;20478;-70
2023/11/15 09:54:20;;;;;;;11.90;7.85;;;;;;;7.41;53.69;98506.56;5043029;28;20037;-67
2023/11/15 09:56:48;;;;;;;14.00;7.88;;;;;;;7.42;53.61;98508.25;5036143;28;20057;-65
2023/11/15 09:59:15;;;;;;;15.77;8.27;;;;;;;7.39;53.81;98511.19;5041738;28;20520;-66
2023/11/15 10:01:45;;;;;;;13.07;7.65;;;;;;;7.30;53.99;98497.72;5052661;28;20068;-69
2023/11/15 10:04:25;;;;;;;12.75;7.88;;;;;;;7.37;54.16;98510.47;5046827;28;20041;-68
2023/11/15 10:07:01;;;;;;;15.85;8.68;;;;;;;7.29;54.06;98509.34;5034471;28;20124;-65
2023/11/15 10:09:38;;;;;;;12.18;8.10;;;;;;;7.40;54.11;98508.41;5038861;28;20029;-67
2023/11/15 10:12:05;;;;;;;14.52;8.00;;;;;;;7.38;53.87;98512.16;5036043;28;20043;-66
2023/11/15 10:14:34;;;;;;;13.02;7.65;;;;;;;7.49;54.15;98505.88;5052304;28;20028;-65
2023/11/15 10:17:03;;;;;;;15.45;7.85;;;;;;;7.58;53.54;98505.91;5040423;28;20041;-67
2023/11/15 10:19:29;;;;;;;13.18;7.85;;;;;;;7.52;53.36;98506.47;5039671;28;20586;-66
2023/11/15 10:22:02;;;;;;;13.00;8.00;;;;;;;7.50;53.71;98504.91;5044814;28;20040;-67
2023/11/15 10:24:29;;;;;;;12.55;7.80;;;;;;;7.37;53.43;98508.69;5034972;28;20052;-67
2023/11/15 10:27:07;;;;;;;18.85;8.00;;;;;;;7.33;54.36;98508.09;5046367;28;20127;-67
2023/11/15 10:29:37;;;;;;;20.75;8.95;;;;;;;7.27;54.35;98513.97;5039444;28;20029;-67
2023/11/15 10:32:04;;;;;;;13.23;8.45;;;;;;;7.26;54.37;98509.63;5041783;28;20133;-68
2023/11/15 10:34:32;;;;;;;10.63;7.47;;;;;;;7.25;53.89;98504.41;5040101;28;20029;-67
2023/11/15 10:37:10;;;;;;;11.73;7.82;;;;;;;7.07;53.92;98467.78;5039840;28;20122;-67
2023/11/15 10:39:46;;;;;;;14.15;7.25;;;;;;;7.22;53.92;98518.00;5044534;28;20090;-69
2023/11/15 10:42:15;;;;;;;13.23;7.53;;;;;;;7.08;54.01;98513.88;5049790;28;20071;-68
2023/11/15 10:44:47;;;;;;;11.77;7.47;;;;;;;6.96;54.64;98511.31;5052687;28;20036;-67
2023/11/15 10:47:27;;;;;;;13.32;7.78;;;;;;;6.91;54.54;98515.38;5041883;28;20057;-68
2023/11/15 10:49:56;;;;;;;12.27;7.60;;;;;;;6.82;54.44;98514.34;5050550;28;20147;-67
2023/11/15 10:52:24;;;;;;;12.02;8.20;;;;;;;6.77;54.61;98522.69;5051181;28;20122;-69
2023/11/15 10:54:55;;;;;;;9.55;7.72;;;;;;;6.89;55.03;98523.47;5035249;28;20484;-66
2023/11/15 10:57:22;;;;;;;11.15;7.50;;;;;;;6.97;54.78;98520.97;5033860;28;20037;-65
2023/11/15 10:59:49;;;;;;;14.63;7.05;;;;;;;7.02;53.83;98525.91;5050414;28;20029;-69
2023/11/15 11:02:17;;;;;;;11.88;7.38;;;;;;;7.07;54.43;98512.22;5053353;28;20377;-70
2023/11/15 11:04:44;;;;;;;10.70;7.82;;;;;;;7.09;53.84;98523.56;5053466;28;20029;-67
2023/11/15 11:07:26;;;;;;;17.17;7.80;;;;;;;7.16;54.16;98514.91;5054151;28;20134;-71
2023/11/15 11:10:08;;;;;;;14.70;7.18;;;;;;;7.18;53.85;98514.75;5051697;28;20033;-66
2023/11/15 11:12:34;;;;;;;10.55;7.18;;;;;;;7.13;53.91;98524.97;5052662;28;20044;-67
2023/11/15 11:15:23;;;;;;;10.60;7.60;;;;;;;7.20;54.11;98523.44;5053664;28;20076;-68
2023/11/15 11:17:49;;;;;;;11.30;6.97;;;;;;;6.89;54.01;98512.81;5044448;28;20064;-67
2023/11/15 11:20:28;;;;;;;13.75;6.90;;;;;;;6.94;54.16;98529.22;5033710;28;20025;-68
2023/11/15 11:23:22;;;;;;;16.45;7.45;;;;;;;6.83;54.47;98531.97;5032724;28;20033;-67
2023/11/15 11:25:49;;;;;;;10.48;6.95;;;;;;;6.63;54.81;98529.22;5040551;28;20052;-69
2023/11/15 11:28:16;;;;;;;10.93;7.22;;;;;;;6.50;54.93;98521.44;5043373;28;20037;-69
2023/11/15 11:30:42;;;;;;;10.35;7.30;;;;;;;6.44;54.78;98528.09;5032812;28;20069;-67
2023/11/15 11:33:15;;;;;;;9.75;7.05;;;;;;;6.42;54.89;98539.84;5032873;28;20065;-70
2023/11/15 11:35:45;;;;;;;11.85;7.43;;;;;;;6.37;55.40;98532.25;5032907;28;20087;-70
2023/11/15 11:38:44;;;;;;;14.10;7.10;;;;;;;6.45;55.90;98535.09;5034081;28;20033;-68